Dixie, Washington
Current Conditions -  °F | °C
As of 10:53 AM on Monday 20 Oct 2014 (Local Time) from KALW Reporting Station
Clear Clear  
Wind Chill: 65°   Ceiling: Unl
Heat Index: 65°   Visibility: 7mi
Dew Point: 50°   Wind: 3mph
Humidity: 58%   Direction: NA
Pressure: 29.76"   Gusts: NA
Location:  46.14°N, 118.16°W
Report Text: KALW 201753Z VRB03KT 7SM CLR 18/10 A2976 RMK AO2 SLP076 T01830100 10183 20089 51009
Loading
Personal Weather Stations






























Interactive Weather Map
Tropical Storm Tracking
New forecast layout! Learn more

10-Day Weather Forecast

Advertisements
Track Severe Weather on mobile